sensor_id;sensor_type;location;lat;lon;timestamp;temperature;humidity
7214;DHT22;3648;50.614;13.830;2022-07-29T00:00:39;18.40;1.00
7214;DHT22;3648;50.614;13.830;2022-07-29T00:03:06;18.50;1.00
7214;DHT22;3648;50.614;13.830;2022-07-29T00:05:33;18.40;1.00
7214;DHT22;3648;50.614;13.830;2022-07-29T00:08:00;18.40;1.00
7214;DHT22;3648;50.614;13.830;2022-07-29T00:10:27;18.40;1.00
7214;DHT22;3648;50.614;13.830;2022-07-29T00:12:55;18.40;1.00
7214;DHT22;3648;50.614;13.830;2022-07-29T00:15:22;18.40;1.00
7214;DHT22;3648;50.614;13.830;2022-07-29T00:17:49;18.30;1.00
7214;DHT22;3648;50.614;13.830;2022-07-29T00:20:16;18.30;1.00
7214;DHT22;3648;50.614;13.830;2022-07-29T00:22:43;18.30;1.00
7214;DHT22;3648;50.614;13.830;2022-07-29T00:25:12;18.30;1.00
7214;DHT22;3648;50.614;13.830;2022-07-29T00:27:39;18.30;1.00
7214;DHT22;3648;50.614;13.830;2022-07-29T00:30:09;18.30;1.00
7214;DHT22;3648;50.614;13.830;2022-07-29T00:32:36;18.20;1.00
7214;DHT22;3648;50.614;13.830;2022-07-29T00:35:03;18.20;1.00
7214;DHT22;3648;50.614;13.830;2022-07-29T00:37:47;18.20;1.00
7214;DHT22;3648;50.614;13.830;2022-07-29T00:40:14;18.20;1.00
7214;DHT22;3648;50.614;13.830;2022-07-29T00:42:42;18.10;1.00
7214;DHT22;3648;50.614;13.830;2022-07-29T00:45:11;18.10;1.00
7214;DHT22;3648;50.614;13.830;2022-07-29T00:47:39;18.10;1.00
7214;DHT22;3648;50.614;13.830;2022-07-29T00:50:07;18.10;1.00
7214;DHT22;3648;50.614;13.830;2022-07-29T00:52:36;18.00;1.00
7214;DHT22;3648;50.614;13.830;2022-07-29T00:55:05;18.00;1.00
7214;DHT22;3648;50.614;13.830;2022-07-29T00:57:33;17.80;1.00
7214;DHT22;3648;50.614;13.830;2022-07-29T01:00:01;17.80;1.00
7214;DHT22;3648;50.614;13.830;2022-07-29T01:02:31;17.80;1.00
7214;DHT22;3648;50.614;13.830;2022-07-29T01:04:57;17.70;1.00
7214;DHT22;3648;50.614;13.830;2022-07-29T01:07:25;17.60;1.00
7214;DHT22;3648;50.614;13.830;2022-07-29T01:09:53;17.40;1.00
7214;DHT22;3648;50.614;13.830;2022-07-29T01:12:23;17.30;1.00
7214;DHT22;3648;50.614;13.830;2022-07-29T01:14:51;17.20;1.00
7214;DHT22;3648;50.614;13.830;2022-07-29T01:17:23;17.10;1.00
7214;DHT22;3648;50.614;13.830;2022-07-29T01:19:58;17.20;1.00
7214;DHT22;3648;50.614;13.830;2022-07-29T01:22:53;17.20;1.00
7214;DHT22;3648;50.614;13.830;2022-07-29T01:25:45;17.20;1.00
7214;DHT22;3648;50.614;13.830;2022-07-29T01:31:16;17.30;1.00
7214;DHT22;3648;50.614;13.830;2022-07-29T01:33:48;17.30;1.00
7214;DHT22;3648;50.614;13.830;2022-07-29T01:36:19;17.30;1.00
7214;DHT22;3648;50.614;13.830;2022-07-29T01:38:54;17.30;1.00
7214;DHT22;3648;50.614;13.830;2022-07-29T01:41:26;17.30;1.00
7214;DHT22;3648;50.614;13.830;2022-07-29T01:43:59;17.20;1.00
7214;DHT22;3648;50.614;13.830;2022-07-29T01:46:33;17.30;1.00
7214;DHT22;3648;50.614;13.830;2022-07-29T01:49:06;17.20;1.00
7214;DHT22;3648;50.614;13.830;2022-07-29T01:51:41;17.20;1.00
7214;DHT22;3648;50.614;13.830;2022-07-29T01:54:14;17.20;1.00
7214;DHT22;3648;50.614;13.830;2022-07-29T01:56:43;17.20;1.00
7214;DHT22;3648;50.614;13.830;2022-07-29T01:59:11;17.20;1.00
7214;DHT22;3648;50.614;13.830;2022-07-29T02:01:42;17.20;1.00
7214;DHT22;3648;50.614;13.830;2022-07-29T02:04:11;17.20;1.00
7214;DHT22;3648;50.614;13.830;2022-07-29T02:06:41;17.30;1.00
7214;DHT22;3648;50.614;13.830;2022-07-29T02:09:10;17.30;1.00
7214;DHT22;3648;50.614;13.830;2022-07-29T02:11:38;17.30;1.00
7214;DHT22;3648;50.614;13.830;2022-07-29T02:14:07;17.30;1.00
7214;DHT22;3648;50.614;13.830;2022-07-29T02:16:37;17.30;1.00
7214;DHT22;3648;50.614;13.830;2022-07-29T02:19:06;17.20;1.00
7214;DHT22;3648;50.614;13.830;2022-07-29T02:21:35;17.20;1.00
7214;DHT22;3648;50.614;13.830;2022-07-29T02:24:04;17.20;1.00
7214;DHT22;3648;50.614;13.830;2022-07-29T02:26:32;17.20;1.00
7214;DHT22;3648;50.614;13.830;2022-07-29T02:29:01;17.20;1.00
7214;DHT22;3648;50.614;13.830;2022-07-29T02:31:33;17.10;1.00
7214;DHT22;3648;50.614;13.830;2022-07-29T02:34:02;17.10;1.00
7214;DHT22;3648;50.614;13.830;2022-07-29T02:36:31;17.10;1.00
7214;DHT22;3648;50.614;13.830;2022-07-29T02:39:00;17.10;1.00
7214;DHT22;3648;50.614;13.830;2022-07-29T02:41:30;17.00;1.00
7214;DHT22;3648;50.614;13.830;2022-07-29T02:44:02;17.00;1.00
7214;DHT22;3648;50.614;13.830;2022-07-29T02:46:32;16.90;1.00
7214;DHT22;3648;50.614;13.830;2022-07-29T02:49:09;16.90;1.00
7214;DHT22;3648;50.614;13.830;2022-07-29T02:51:43;16.90;1.00
7214;DHT22;3648;50.614;13.830;2022-07-29T02:54:16;17.00;1.00
7214;DHT22;3648;50.614;13.830;2022-07-29T02:56:46;17.00;1.00
7214;DHT22;3648;50.614;13.830;2022-07-29T02:59:17;17.10;1.00
7214;DHT22;3648;50.614;13.830;2022-07-29T03:01:47;17.10;1.00
7214;DHT22;3648;50.614;13.830;2022-07-29T03:04:14;17.20;1.00
7214;DHT22;3648;50.614;13.830;2022-07-29T03:06:44;17.20;1.00
7214;DHT22;3648;50.614;13.830;2022-07-29T03:09:13;17.30;1.00
7214;DHT22;3648;50.614;13.830;2022-07-29T03:11:44;17.40;1.00
7214;DHT22;3648;50.614;13.830;2022-07-29T03:14:12;17.50;1.00
7214;DHT22;3648;50.614;13.830;2022-07-29T03:16:39;17.50;1.00
7214;DHT22;3648;50.614;13.830;2022-07-29T03:19:07;17.60;1.00
7214;DHT22;3648;50.614;13.830;2022-07-29T03:21:34;17.60;1.00
7214;DHT22;3648;50.614;13.830;2022-07-29T03:24:02;17.60;1.00
7214;DHT22;3648;50.614;13.830;2022-07-29T03:26:29;17.60;1.00
7214;DHT22;3648;50.614;13.830;2022-07-29T03:28:56;17.60;1.00
7214;DHT22;3648;50.614;13.830;2022-07-29T03:31:23;17.60;1.00
7214;DHT22;3648;50.614;13.830;2022-07-29T03:33:51;17.60;1.00
7214;DHT22;3648;50.614;13.830;2022-07-29T03:36:18;17.60;1.00
7214;DHT22;3648;50.614;13.830;2022-07-29T03:38:45;17.60;1.00
7214;DHT22;3648;50.614;13.830;2022-07-29T03:41:17;17.60;1.00
7214;DHT22;3648;50.614;13.830;2022-07-29T03:43:45;17.50;1.00
7214;DHT22;3648;50.614;13.830;2022-07-29T03:46:15;17.50;1.00
7214;DHT22;3648;50.614;13.830;2022-07-29T03:48:46;17.40;1.00
7214;DHT22;3648;50.614;13.830;2022-07-29T03:51:15;17.40;1.00
7214;DHT22;3648;50.614;13.830;2022-07-29T03:53:42;17.40;1.00
7214;DHT22;3648;50.614;13.830;2022-07-29T03:56:10;17.40;1.00
7214;DHT22;3648;50.614;13.830;2022-07-29T03:58:43;17.40;1.00
7214;DHT22;3648;50.614;13.830;2022-07-29T04:01:11;17.40;1.00
7214;DHT22;3648;50.614;13.830;2022-07-29T04:03:39;17.40;1.00
7214;DHT22;3648;50.614;13.830;2022-07-29T04:06:07;17.40;1.00
7214;DHT22;3648;50.614;13.830;2022-07-29T04:08:34;17.40;1.00
7214;DHT22;3648;50.614;13.830;2022-07-29T04:11:01;17.30;1.00
7214;DHT22;3648;50.614;13.830;2022-07-29T04:13:28;17.30;1.00
7214;DHT22;3648;50.614;13.830;2022-07-29T04:15:57;17.20;1.00
7214;DHT22;3648;50.614;13.830;2022-07-29T04:18:24;17.20;1.00
7214;DHT22;3648;50.614;13.830;2022-07-29T04:20:51;17.20;1.00
7214;DHT22;3648;50.614;13.830;2022-07-29T04:23:18;17.20;1.00
7214;DHT22;3648;50.614;13.830;2022-07-29T04:25:45;17.20;1.00
7214;DHT22;3648;50.614;13.830;2022-07-29T04:28:12;17.20;1.00
7214;DHT22;3648;50.614;13.830;2022-07-29T04:30:39;17.20;1.00
7214;DHT22;3648;50.614;13.830;2022-07-29T04:33:07;17.20;1.00
7214;DHT22;3648;50.614;13.830;2022-07-29T04:35:36;17.10;1.00
7214;DHT22;3648;50.614;13.830;2022-07-29T04:38:04;17.00;1.00
7214;DHT22;3648;50.614;13.830;2022-07-29T04:40:31;16.90;1.00
7214;DHT22;3648;50.614;13.830;2022-07-29T04:42:59;16.80;1.00
7214;DHT22;3648;50.614;13.830;2022-07-29T04:45:27;16.80;1.00
7214;DHT22;3648;50.614;13.830;2022-07-29T04:47:54;16.80;1.00
7214;DHT22;3648;50.614;13.830;2022-07-29T04:50:22;16.80;1.00
7214;DHT22;3648;50.614;13.830;2022-07-29T04:52:50;16.80;1.00
7214;DHT22;3648;50.614;13.830;2022-07-29T04:55:17;16.70;1.00
7214;DHT22;3648;50.614;13.830;2022-07-29T04:57:44;16.80;1.00
7214;DHT22;3648;50.614;13.830;2022-07-29T05:00:11;16.80;1.00
7214;DHT22;3648;50.614;13.830;2022-07-29T05:02:38;16.80;1.00
7214;DHT22;3648;50.614;13.830;2022-07-29T05:05:05;16.70;1.00
7214;DHT22;3648;50.614;13.830;2022-07-29T05:07:34;16.60;1.00
7214;DHT22;3648;50.614;13.830;2022-07-29T05:10:01;16.70;1.00
7214;DHT22;3648;50.614;13.830;2022-07-29T05:12:28;16.80;1.00
7214;DHT22;3648;50.614;13.830;2022-07-29T05:14:55;16.70;1.00
7214;DHT22;3648;50.614;13.830;2022-07-29T05:17:22;16.80;1.00
7214;DHT22;3648;50.614;13.830;2022-07-29T05:19:49;16.90;1.00
7214;DHT22;3648;50.614;13.830;2022-07-29T05:22:17;17.00;1.00
7214;DHT22;3648;50.614;13.830;2022-07-29T05:24:46;17.20;1.00
7214;DHT22;3648;50.614;13.830;2022-07-29T05:27:13;17.30;1.00
7214;DHT22;3648;50.614;13.830;2022-07-29T05:29:40;17.50;1.00
7214;DHT22;3648;50.614;13.830;2022-07-29T05:32:07;17.60;1.00
7214;DHT22;3648;50.614;13.830;2022-07-29T05:34:34;17.80;1.00
7214;DHT22;3648;50.614;13.830;2022-07-29T05:37:01;17.90;1.00
7214;DHT22;3648;50.614;13.830;2022-07-29T05:39:28;18.00;1.00
7214;DHT22;3648;50.614;13.830;2022-07-29T05:41:56;18.10;1.00
7214;DHT22;3648;50.614;13.830;2022-07-29T05:44:23;18.20;1.00
7214;DHT22;3648;50.614;13.830;2022-07-29T05:46:50;18.30;1.00
7214;DHT22;3648;50.614;13.830;2022-07-29T05:49:17;18.40;1.00
7214;DHT22;3648;50.614;13.830;2022-07-29T05:51:44;18.50;1.00
7214;DHT22;3648;50.614;13.830;2022-07-29T05:54:12;18.60;1.00
7214;DHT22;3648;50.614;13.830;2022-07-29T05:56:39;18.70;1.00
7214;DHT22;3648;50.614;13.830;2022-07-29T05:59:08;18.80;1.00
7214;DHT22;3648;50.614;13.830;2022-07-29T06:01:35;18.90;1.00
7214;DHT22;3648;50.614;13.830;2022-07-29T06:04:05;18.90;1.00
7214;DHT22;3648;50.614;13.830;2022-07-29T06:06:32;19.00;1.00
7214;DHT22;3648;50.614;13.830;2022-07-29T06:08:59;19.10;1.00
7214;DHT22;3648;50.614;13.830;2022-07-29T06:11:26;19.20;1.00
7214;DHT22;3648;50.614;13.830;2022-07-29T06:13:53;19.30;1.00
7214;DHT22;3648;50.614;13.830;2022-07-29T06:16:22;19.40;1.00
7214;DHT22;3648;50.614;13.830;2022-07-29T06:18:48;19.50;1.00
7214;DHT22;3648;50.614;13.830;2022-07-29T06:21:15;19.60;1.00
7214;DHT22;3648;50.614;13.830;2022-07-29T06:23:42;19.70;1.00
7214;DHT22;3648;50.614;13.830;2022-07-29T06:26:11;19.90;1.00
7214;DHT22;3648;50.614;13.830;2022-07-29T06:28:38;20.00;1.00
7214;DHT22;3648;50.614;13.830;2022-07-29T06:31:05;20.10;1.00
7214;DHT22;3648;50.614;13.830;2022-07-29T06:33:34;20.30;1.00
7214;DHT22;3648;50.614;13.830;2022-07-29T06:36:03;20.40;1.00
7214;DHT22;3648;50.614;13.830;2022-07-29T06:38:31;20.60;1.00
7214;DHT22;3648;50.614;13.830;2022-07-29T06:40:58;20.80;1.00
7214;DHT22;3648;50.614;13.830;2022-07-29T06:43:31;20.90;1.00
7214;DHT22;3648;50.614;13.830;2022-07-29T06:46:03;21.10;1.00
7214;DHT22;3648;50.614;13.830;2022-07-29T06:48:30;21.30;1.00
7214;DHT22;3648;50.614;13.830;2022-07-29T06:51:00;21.40;1.00
7214;DHT22;3648;50.614;13.830;2022-07-29T06:53:27;21.60;1.00
7214;DHT22;3648;50.614;13.830;2022-07-29T06:55:54;21.70;1.00
7214;DHT22;3648;50.614;13.830;2022-07-29T06:58:21;21.80;1.00
7214;DHT22;3648;50.614;13.830;2022-07-29T07:00:49;21.90;1.00
7214;DHT22;3648;50.614;13.830;2022-07-29T07:03:16;21.90;1.00
7214;DHT22;3648;50.614;13.830;2022-07-29T07:05:44;22.10;1.00
7214;DHT22;3648;50.614;13.830;2022-07-29T07:08:13;22.10;1.00
7214;DHT22;3648;50.614;13.830;2022-07-29T07:10:42;22.20;1.00
7214;DHT22;3648;50.614;13.830;2022-07-29T07:13:09;22.30;1.00
7214;DHT22;3648;50.614;13.830;2022-07-29T07:15:36;22.40;1.00
7214;DHT22;3648;50.614;13.830;2022-07-29T07:18:04;22.40;1.00
7214;DHT22;3648;50.614;13.830;2022-07-29T07:20:31;22.40;1.00
7214;DHT22;3648;50.614;13.830;2022-07-29T07:22:58;22.50;1.00
7214;DHT22;3648;50.614;13.830;2022-07-29T07:25:26;22.60;1.00
7214;DHT22;3648;50.614;13.830;2022-07-29T07:27:54;22.70;1.00
7214;DHT22;3648;50.614;13.830;2022-07-29T07:30:21;22.80;1.00
7214;DHT22;3648;50.614;13.830;2022-07-29T07:32:48;22.90;1.00
7214;DHT22;3648;50.614;13.830;2022-07-29T07:35:15;22.90;1.00
7214;DHT22;3648;50.614;13.830;2022-07-29T07:37:42;23.00;1.00
7214;DHT22;3648;50.614;13.830;2022-07-29T07:40:10;23.10;1.00
7214;DHT22;3648;50.614;13.830;2022-07-29T07:42:39;23.20;1.00
7214;DHT22;3648;50.614;13.830;2022-07-29T07:45:08;23.20;1.00
7214;DHT22;3648;50.614;13.830;2022-07-29T07:47:36;23.30;1.00
7214;DHT22;3648;50.614;13.830;2022-07-29T07:50:04;23.30;1.00
7214;DHT22;3648;50.614;13.830;2022-07-29T07:52:31;23.40;1.00
7214;DHT22;3648;50.614;13.830;2022-07-29T07:54:59;23.40;1.00
7214;DHT22;3648;50.614;13.830;2022-07-29T07:57:26;23.50;1.00
7214;DHT22;3648;50.614;13.830;2022-07-29T07:59:55;23.50;1.00
7214;DHT22;3648;50.614;13.830;2022-07-29T08:02:22;23.50;1.00
7214;DHT22;3648;50.614;13.830;2022-07-29T08:04:49;23.50;1.00
7214;DHT22;3648;50.614;13.830;2022-07-29T08:07:15;23.60;1.00
7214;DHT22;3648;50.614;13.830;2022-07-29T08:09:42;23.70;1.00
7214;DHT22;3648;50.614;13.830;2022-07-29T08:12:09;23.90;1.00
7214;DHT22;3648;50.614;13.830;2022-07-29T08:14:36;23.90;1.00
7214;DHT22;3648;50.614;13.830;2022-07-29T08:17:05;24.10;1.00
7214;DHT22;3648;50.614;13.830;2022-07-29T08:19:32;24.20;1.00
7214;DHT22;3648;50.614;13.830;2022-07-29T08:21:59;24.20;1.00
7214;DHT22;3648;50.614;13.830;2022-07-29T08:24:26;24.40;1.00
7214;DHT22;3648;50.614;13.830;2022-07-29T08:27:18;24.50;1.00
7214;DHT22;3648;50.614;13.830;2022-07-29T08:29:46;24.70;1.00
7214;DHT22;3648;50.614;13.830;2022-07-29T08:32:14;24.80;1.00
7214;DHT22;3648;50.614;13.830;2022-07-29T08:34:41;24.90;1.00
7214;DHT22;3648;50.614;13.830;2022-07-29T08:37:10;25.10;1.00
7214;DHT22;3648;50.614;13.830;2022-07-29T08:39:37;25.20;1.00
7214;DHT22;3648;50.614;13.830;2022-07-29T08:42:05;25.40;1.00
7214;DHT22;3648;50.614;13.830;2022-07-29T08:44:33;25.50;1.00
7214;DHT22;3648;50.614;13.830;2022-07-29T08:47:01;25.50;1.00
7214;DHT22;3648;50.614;13.830;2022-07-29T08:49:30;25.60;1.00
7214;DHT22;3648;50.614;13.830;2022-07-29T08:51:57;25.70;1.00
7214;DHT22;3648;50.614;13.830;2022-07-29T08:54:25;25.70;1.00
7214;DHT22;3648;50.614;13.830;2022-07-29T08:56:52;25.70;1.00
7214;DHT22;3648;50.614;13.830;2022-07-29T08:59:20;25.50;1.00
7214;DHT22;3648;50.614;13.830;2022-07-29T09:01:51;25.50;1.00
7214;DHT22;3648;50.614;13.830;2022-07-29T09:04:20;25.30;1.00
7214;DHT22;3648;50.614;13.830;2022-07-29T09:06:51;25.30;1.00
7214;DHT22;3648;50.614;13.830;2022-07-29T09:09:20;25.30;1.00
7214;DHT22;3648;50.614;13.830;2022-07-29T09:11:48;25.30;1.00
7214;DHT22;3648;50.614;13.830;2022-07-29T09:14:15;25.20;1.00
7214;DHT22;3648;50.614;13.830;2022-07-29T09:16:50;25.20;1.00
7214;DHT22;3648;50.614;13.830;2022-07-29T09:19:23;25.10;1.00
7214;DHT22;3648;50.614;13.830;2022-07-29T09:21:52;25.00;1.00
7214;DHT22;3648;50.614;13.830;2022-07-29T09:24:27;24.90;1.00
7214;DHT22;3648;50.614;13.830;2022-07-29T09:26:54;24.90;1.00
7214;DHT22;3648;50.614;13.830;2022-07-29T09:29:23;24.80;1.00
7214;DHT22;3648;50.614;13.830;2022-07-29T09:31:51;24.90;1.00
7214;DHT22;3648;50.614;13.830;2022-07-29T09:34:22;25.00;1.00
7214;DHT22;3648;50.614;13.830;2022-07-29T09:36:53;25.10;1.00
7214;DHT22;3648;50.614;13.830;2022-07-29T09:39:30;25.20;1.00
7214;DHT22;3648;50.614;13.830;2022-07-29T09:41:59;25.30;1.00
7214;DHT22;3648;50.614;13.830;2022-07-29T09:44:26;25.30;1.00
7214;DHT22;3648;50.614;13.830;2022-07-29T09:47:06;25.40;1.00
7214;DHT22;3648;50.614;13.830;2022-07-29T09:49:34;25.50;1.00
7214;DHT22;3648;50.614;13.830;2022-07-29T09:52:08;25.50;1.00
7214;DHT22;3648;50.614;13.830;2022-07-29T09:54:37;25.60;1.00
7214;DHT22;3648;50.614;13.830;2022-07-29T09:57:05;25.70;1.00
7214;DHT22;3648;50.614;13.830;2022-07-29T09:59:33;25.90;1.00
7214;DHT22;3648;50.614;13.830;2022-07-29T10:02:00;26.20;1.00
7214;DHT22;3648;50.614;13.830;2022-07-29T10:04:38;26.40;1.00
7214;DHT22;3648;50.614;13.830;2022-07-29T10:07:07;26.50;1.00
7214;DHT22;3648;50.614;13.830;2022-07-29T10:09:35;26.40;1.00
7214;DHT22;3648;50.614;13.830;2022-07-29T10:12:04;26.50;1.00
7214;DHT22;3648;50.614;13.830;2022-07-29T10:14:31;26.40;1.00
7214;DHT22;3648;50.614;13.830;2022-07-29T10:16:59;26.40;1.00
7214;DHT22;3648;50.614;13.830;2022-07-29T10:19:28;26.30;1.00
7214;DHT22;3648;50.614;13.830;2022-07-29T10:21:56;26.30;1.00
7214;DHT22;3648;50.614;13.830;2022-07-29T10:24:26;26.20;1.00
7214;DHT22;3648;50.614;13.830;2022-07-29T10:26:55;26.10;1.00
7214;DHT22;3648;50.614;13.830;2022-07-29T10:29:22;26.20;1.00
7214;DHT22;3648;50.614;13.830;2022-07-29T10:31:56;26.30;1.00
7214;DHT22;3648;50.614;13.830;2022-07-29T10:34:33;26.30;1.00
7214;DHT22;3648;50.614;13.830;2022-07-29T10:37:08;26.30;1.00
7214;DHT22;3648;50.614;13.830;2022-07-29T10:39:53;26.30;1.00
7214;DHT22;3648;50.614;13.830;2022-07-29T10:42:23;26.20;1.00
7214;DHT22;3648;50.614;13.830;2022-07-29T10:44:53;26.20;1.00
7214;DHT22;3648;50.614;13.830;2022-07-29T10:47:21;26.30;1.00
7214;DHT22;3648;50.614;13.830;2022-07-29T10:49:59;26.30;1.00
7214;DHT22;3648;50.614;13.830;2022-07-29T10:52:58;26.50;1.00
7214;DHT22;3648;50.614;13.830;2022-07-29T10:55:33;26.60;1.00
7214;DHT22;3648;50.614;13.830;2022-07-29T10:58:12;26.70;1.00
7214;DHT22;3648;50.614;13.830;2022-07-29T11:00:40;26.80;1.00
7214;DHT22;3648;50.614;13.830;2022-07-29T11:03:07;27.00;1.00
7214;DHT22;3648;50.614;13.830;2022-07-29T11:05:55;26.90;1.00
7214;DHT22;3648;50.614;13.830;2022-07-29T11:08:24;27.00;1.00
7214;DHT22;3648;50.614;13.830;2022-07-29T11:13:49;27.00;1.00
7214;DHT22;3648;50.614;13.830;2022-07-29T11:16:18;26.90;1.00
7214;DHT22;3648;50.614;13.830;2022-07-29T11:19:18;26.90;1.00
7214;DHT22;3648;50.614;13.830;2022-07-29T11:21:46;26.80;1.00
7214;DHT22;3648;50.614;13.830;2022-07-29T11:24:16;26.90;99.90
7214;DHT22;3648;50.614;13.830;2022-07-29T11:26:45;27.00;1.00
7214;DHT22;3648;50.614;13.830;2022-07-29T11:29:18;26.90;1.00
7214;DHT22;3648;50.614;13.830;2022-07-29T11:31:50;26.90;1.00
7214;DHT22;3648;50.614;13.830;2022-07-29T11:34:22;26.80;1.00
7214;DHT22;3648;50.614;13.830;2022-07-29T11:37:15;26.80;1.00
7214;DHT22;3648;50.614;13.830;2022-07-29T11:39:43;26.80;1.00
7214;DHT22;3648;50.614;13.830;2022-07-29T11:42:38;26.80;1.00
7214;DHT22;3648;50.614;13.830;2022-07-29T11:45:07;26.90;1.00
7214;DHT22;3648;50.614;13.830;2022-07-29T11:47:37;26.90;1.00
7214;DHT22;3648;50.614;13.830;2022-07-29T11:50:06;26.90;99.90
7214;DHT22;3648;50.614;13.830;2022-07-29T11:52:35;27.00;99.90
7214;DHT22;3648;50.614;13.830;2022-07-29T11:55:04;27.10;99.90
7214;DHT22;3648;50.614;13.830;2022-07-29T11:57:34;27.10;1.00
7214;DHT22;3648;50.614;13.830;2022-07-29T12:00:04;27.20;99.90
7214;DHT22;3648;50.614;13.830;2022-07-29T12:02:40;27.30;1.00
7214;DHT22;3648;50.614;13.830;2022-07-29T12:05:08;27.40;99.90
7214;DHT22;3648;50.614;13.830;2022-07-29T12:07:37;27.50;99.90
7214;DHT22;3648;50.614;13.830;2022-07-29T12:10:07;27.60;99.90
7214;DHT22;3648;50.614;13.830;2022-07-29T12:12:34;27.60;99.90
7214;DHT22;3648;50.614;13.830;2022-07-29T12:15:14;27.60;1.00
7214;DHT22;3648;50.614;13.830;2022-07-29T12:17:43;27.40;99.90
7214;DHT22;3648;50.614;13.830;2022-07-29T12:20:10;27.40;99.90
7214;DHT22;3648;50.614;13.830;2022-07-29T12:22:40;27.40;99.90
7214;DHT22;3648;50.614;13.830;2022-07-29T12:25:11;27.50;99.90
7214;DHT22;3648;50.614;13.830;2022-07-29T12:27:40;27.60;1.00
7214;DHT22;3648;50.614;13.830;2022-07-29T12:30:12;27.70;99.90
7214;DHT22;3648;50.614;13.830;2022-07-29T12:32:44;27.80;99.90
7214;DHT22;3648;50.614;13.830;2022-07-29T12:35:14;27.70;99.90
7214;DHT22;3648;50.614;13.830;2022-07-29T12:37:44;27.70;99.90
7214;DHT22;3648;50.614;13.830;2022-07-29T12:40:14;27.70;99.90
7214;DHT22;3648;50.614;13.830;2022-07-29T12:43:06;27.50;99.90
7214;DHT22;3648;50.614;13.830;2022-07-29T12:45:37;27.40;99.90
7214;DHT22;3648;50.614;13.830;2022-07-29T12:48:05;27.40;99.90
7214;DHT22;3648;50.614;13.830;2022-07-29T12:50:34;27.40;99.90
7214;DHT22;3648;50.614;13.830;2022-07-29T12:53:11;27.30;99.90
7214;DHT22;3648;50.614;13.830;2022-07-29T12:55:43;27.20;99.90
7214;DHT22;3648;50.614;13.830;2022-07-29T12:58:14;27.20;99.90
7214;DHT22;3648;50.614;13.830;2022-07-29T13:01:04;27.10;99.90
7214;DHT22;3648;50.614;13.830;2022-07-29T13:03:49;27.10;99.90
7214;DHT22;3648;50.614;13.830;2022-07-29T13:06:35;27.10;99.90
7214;DHT22;3648;50.614;13.830;2022-07-29T13:09:05;27.10;99.90
7214;DHT22;3648;50.614;13.830;2022-07-29T13:11:34;27.20;99.90
7214;DHT22;3648;50.614;13.830;2022-07-29T13:14:01;27.20;99.90
7214;DHT22;3648;50.614;13.830;2022-07-29T13:16:30;27.30;99.90
7214;DHT22;3648;50.614;13.830;2022-07-29T13:19:05;27.30;99.90
7214;DHT22;3648;50.614;13.830;2022-07-29T13:21:32;27.30;99.90
7214;DHT22;3648;50.614;13.830;2022-07-29T13:24:00;27.30;99.90
7214;DHT22;3648;50.614;13.830;2022-07-29T13:26:27;27.40;99.90
7214;DHT22;3648;50.614;13.830;2022-07-29T13:28:54;27.50;99.90
7214;DHT22;3648;50.614;13.830;2022-07-29T13:31:21;27.40;99.90
7214;DHT22;3648;50.614;13.830;2022-07-29T13:33:49;27.50;99.90
7214;DHT22;3648;50.614;13.830;2022-07-29T13:36:16;27.60;99.90
7214;DHT22;3648;50.614;13.830;2022-07-29T13:38:44;27.70;99.90
7214;DHT22;3648;50.614;13.830;2022-07-29T13:41:11;27.70;99.90
7214;DHT22;3648;50.614;13.830;2022-07-29T13:43:38;27.70;99.90
7214;DHT22;3648;50.614;13.830;2022-07-29T13:46:05;27.80;99.90
7214;DHT22;3648;50.614;13.830;2022-07-29T13:48:32;27.80;99.90
7214;DHT22;3648;50.614;13.830;2022-07-29T13:51:01;27.80;99.90
7214;DHT22;3648;50.614;13.830;2022-07-29T13:53:27;27.80;99.90
7214;DHT22;3648;50.614;13.830;2022-07-29T13:55:55;27.80;99.90
7214;DHT22;3648;50.614;13.830;2022-07-29T13:58:22;27.90;99.90
7214;DHT22;3648;50.614;13.830;2022-07-29T14:00:49;27.90;99.90
7214;DHT22;3648;50.614;13.830;2022-07-29T14:03:16;28.10;99.90
7214;DHT22;3648;50.614;13.830;2022-07-29T14:05:43;28.10;99.90
7214;DHT22;3648;50.614;13.830;2022-07-29T14:08:11;28.00;99.90
7214;DHT22;3648;50.614;13.830;2022-07-29T14:10:38;28.00;99.90
7214;DHT22;3648;50.614;13.830;2022-07-29T14:13:05;28.00;99.90
7214;DHT22;3648;50.614;13.830;2022-07-29T14:15:32;28.00;99.90
7214;DHT22;3648;50.614;13.830;2022-07-29T14:17:59;28.10;99.90
7214;DHT22;3648;50.614;13.830;2022-07-29T14:20:27;28.10;99.90
7214;DHT22;3648;50.614;13.830;2022-07-29T14:22:55;28.20;99.90
7214;DHT22;3648;50.614;13.830;2022-07-29T14:25:24;28.20;99.90
7214;DHT22;3648;50.614;13.830;2022-07-29T14:27:51;28.20;99.90
7214;DHT22;3648;50.614;13.830;2022-07-29T14:30:19;28.30;99.90
7214;DHT22;3648;50.614;13.830;2022-07-29T14:32:46;28.30;99.90
7214;DHT22;3648;50.614;13.830;2022-07-29T14:35:13;28.10;99.90
7214;DHT22;3648;50.614;13.830;2022-07-29T14:37:41;28.00;99.90
7214;DHT22;3648;50.614;13.830;2022-07-29T14:40:09;28.10;99.90
7214;DHT22;3648;50.614;13.830;2022-07-29T14:42:38;28.00;99.90
7214;DHT22;3648;50.614;13.830;2022-07-29T14:45:07;28.10;99.90
7214;DHT22;3648;50.614;13.830;2022-07-29T14:47:34;28.00;99.90
7214;DHT22;3648;50.614;13.830;2022-07-29T14:50:02;28.20;99.90
7214;DHT22;3648;50.614;13.830;2022-07-29T14:52:30;28.30;99.90
7214;DHT22;3648;50.614;13.830;2022-07-29T14:54:57;28.40;99.90
7214;DHT22;3648;50.614;13.830;2022-07-29T14:57:24;28.40;99.90
7214;DHT22;3648;50.614;13.830;2022-07-29T14:59:52;28.50;99.90
7214;DHT22;3648;50.614;13.830;2022-07-29T15:02:20;28.50;99.90
7214;DHT22;3648;50.614;13.830;2022-07-29T15:04:47;28.60;99.90
7214;DHT22;3648;50.614;13.830;2022-07-29T15:07:14;28.50;99.90
7214;DHT22;3648;50.614;13.830;2022-07-29T15:09:42;28.50;99.90
7214;DHT22;3648;50.614;13.830;2022-07-29T15:12:11;28.50;99.90
7214;DHT22;3648;50.614;13.830;2022-07-29T15:14:38;28.50;99.90
7214;DHT22;3648;50.614;13.830;2022-07-29T15:17:06;28.50;99.90
7214;DHT22;3648;50.614;13.830;2022-07-29T15:19:33;28.40;99.90
7214;DHT22;3648;50.614;13.830;2022-07-29T15:22:00;28.40;99.90
7214;DHT22;3648;50.614;13.830;2022-07-29T15:24:27;28.40;99.90
7214;DHT22;3648;50.614;13.830;2022-07-29T15:26:54;28.40;99.90
7214;DHT22;3648;50.614;13.830;2022-07-29T15:29:21;28.50;99.90
7214;DHT22;3648;50.614;13.830;2022-07-29T15:31:48;28.50;99.90
7214;DHT22;3648;50.614;13.830;2022-07-29T15:34:16;28.60;99.90
7214;DHT22;3648;50.614;13.830;2022-07-29T15:36:45;28.60;99.90
7214;DHT22;3648;50.614;13.830;2022-07-29T15:39:12;28.70;99.90
7214;DHT22;3648;50.614;13.830;2022-07-29T15:41:39;28.80;99.90
7214;DHT22;3648;50.614;13.830;2022-07-29T15:44:06;28.70;99.90
7214;DHT22;3648;50.614;13.830;2022-07-29T15:46:33;28.70;99.90
7214;DHT22;3648;50.614;13.830;2022-07-29T15:49:19;28.70;99.90
7214;DHT22;3648;50.614;13.830;2022-07-29T15:51:46;28.70;99.90
7214;DHT22;3648;50.614;13.830;2022-07-29T15:54:13;28.60;99.90
7214;DHT22;3648;50.614;13.830;2022-07-29T15:56:42;28.60;99.90
7214;DHT22;3648;50.614;13.830;2022-07-29T15:59:08;28.50;99.90
7214;DHT22;3648;50.614;13.830;2022-07-29T16:01:35;28.40;99.90
7214;DHT22;3648;50.614;13.830;2022-07-29T16:04:03;28.50;99.90
7214;DHT22;3648;50.614;13.830;2022-07-29T16:06:31;28.40;99.90
7214;DHT22;3648;50.614;13.830;2022-07-29T16:08:58;28.30;99.90
7214;DHT22;3648;50.614;13.830;2022-07-29T16:11:25;28.20;99.90
7214;DHT22;3648;50.614;13.830;2022-07-29T16:13:52;28.10;99.90
7214;DHT22;3648;50.614;13.830;2022-07-29T16:16:19;27.90;99.90